sensor_id;sensor_type;location;lat;lon;timestamp;P1;durP1;ratioP1;P2;durP2;ratioP2
65936;SDS011;52707;52.086;5.418;2023-02-28T00:00:10;13.15;;;3.22;;
65936;SDS011;52707;52.086;5.418;2023-02-28T00:02:37;6.03;;;3.22;;
65936;SDS011;52707;52.086;5.418;2023-02-28T00:05:04;8.82;;;3.08;;
65936;SDS011;52707;52.086;5.418;2023-02-28T00:07:31;7.53;;;2.80;;
65936;SDS011;52707;52.086;5.418;2023-02-28T00:09:57;7.13;;;3.30;;
65936;SDS011;52707;52.086;5.418;2023-02-28T00:12:23;7.63;;;3.00;;
65936;SDS011;52707;52.086;5.418;2023-02-28T00:14:50;7.00;;;3.50;;
65936;SDS011;52707;52.086;5.418;2023-02-28T00:17:16;7.63;;;3.25;;
65936;SDS011;52707;52.086;5.418;2023-02-28T00:19:47;7.25;;;3.28;;
65936;SDS011;52707;52.086;5.418;2023-02-28T00:22:18;8.23;;;3.30;;
65936;SDS011;52707;52.086;5.418;2023-02-28T00:24:45;5.90;;;3.05;;
65936;SDS011;52707;52.086;5.418;2023-02-28T00:27:11;4.75;;;3.15;;
65936;SDS011;52707;52.086;5.418;2023-02-28T00:29:37;7.95;;;3.08;;
65936;SDS011;52707;52.086;5.418;2023-02-28T00:32:04;7.70;;;3.33;;
65936;SDS011;52707;52.086;5.418;2023-02-28T00:34:30;6.20;;;3.28;;
65936;SDS011;52707;52.086;5.418;2023-02-28T00:36:57;6.88;;;2.97;;
65936;SDS011;52707;52.086;5.418;2023-02-28T00:39:23;8.68;;;3.33;;
65936;SDS011;52707;52.086;5.418;2023-02-28T00:41:49;6.60;;;3.88;;
65936;SDS011;52707;52.086;5.418;2023-02-28T00:44:16;12.68;;;4.50;;
65936;SDS011;52707;52.086;5.418;2023-02-28T00:46:42;6.03;;;4.18;;
65936;SDS011;52707;52.086;5.418;2023-02-28T00:49:08;9.15;;;5.00;;
65936;SDS011;52707;52.086;5.418;2023-02-28T00:51:34;15.57;;;4.80;;
65936;SDS011;52707;52.086;5.418;2023-02-28T00:54:01;6.72;;;4.13;;
65936;SDS011;52707;52.086;5.418;2023-02-28T00:56:27;10.05;;;5.55;;
65936;SDS011;52707;52.086;5.418;2023-02-28T00:58:53;6.68;;;4.50;;
65936;SDS011;52707;52.086;5.418;2023-02-28T01:01:19;8.25;;;4.47;;
65936;SDS011;52707;52.086;5.418;2023-02-28T01:03:46;5.78;;;4.13;;
65936;SDS011;52707;52.086;5.418;2023-02-28T01:06:12;6.93;;;4.50;;
65936;SDS011;52707;52.086;5.418;2023-02-28T01:08:38;7.55;;;4.30;;
65936;SDS011;52707;52.086;5.418;2023-02-28T01:11:09;7.47;;;4.00;;
65936;SDS011;52707;52.086;5.418;2023-02-28T01:13:36;8.70;;;3.80;;
65936;SDS011;52707;52.086;5.418;2023-02-28T01:16:02;5.88;;;3.90;;
65936;SDS011;52707;52.086;5.418;2023-02-28T01:18:29;7.43;;;3.70;;
65936;SDS011;52707;52.086;5.418;2023-02-28T01:20:55;6.80;;;3.75;;
65936;SDS011;52707;52.086;5.418;2023-02-28T01:23:21;10.30;;;4.28;;
65936;SDS011;52707;52.086;5.418;2023-02-28T01:25:50;5.80;;;3.53;;
65936;SDS011;52707;52.086;5.418;2023-02-28T01:28:16;6.13;;;3.58;;
65936;SDS011;52707;52.086;5.418;2023-02-28T01:30:42;8.35;;;4.28;;
65936;SDS011;52707;52.086;5.418;2023-02-28T01:33:09;11.73;;;4.43;;
65936;SDS011;52707;52.086;5.418;2023-02-28T01:35:35;7.00;;;3.58;;
65936;SDS011;52707;52.086;5.418;2023-02-28T01:38:02;6.93;;;3.42;;
65936;SDS011;52707;52.086;5.418;2023-02-28T01:40:46;8.05;;;3.65;;
65936;SDS011;52707;52.086;5.418;2023-02-28T01:43:23;6.75;;;3.88;;
65936;SDS011;52707;52.086;5.418;2023-02-28T01:45:50;5.25;;;3.05;;
65936;SDS011;52707;52.086;5.418;2023-02-28T01:48:16;11.77;;;3.60;;
65936;SDS011;52707;52.086;5.418;2023-02-28T01:50:44;6.75;;;3.47;;
65936;SDS011;52707;52.086;5.418;2023-02-28T01:53:12;12.50;;;3.45;;
65936;SDS011;52707;52.086;5.418;2023-02-28T01:55:40;6.00;;;4.15;;
65936;SDS011;52707;52.086;5.418;2023-02-28T01:58:08;18.17;;;4.40;;
65936;SDS011;52707;52.086;5.418;2023-02-28T02:00:35;5.18;;;3.42;;
65936;SDS011;52707;52.086;5.418;2023-02-28T02:03:11;7.00;;;3.55;;
65936;SDS011;52707;52.086;5.418;2023-02-28T02:05:39;6.30;;;3.67;;
65936;SDS011;52707;52.086;5.418;2023-02-28T02:08:07;8.90;;;3.50;;
65936;SDS011;52707;52.086;5.418;2023-02-28T02:10:36;8.57;;;3.80;;
65936;SDS011;52707;52.086;5.418;2023-02-28T02:15:37;5.28;;;3.90;;
65936;SDS011;52707;52.086;5.418;2023-02-28T02:18:09;9.25;;;3.83;;
65936;SDS011;52707;52.086;5.418;2023-02-28T02:20:58;7.65;;;3.63;;
65936;SDS011;52707;52.086;5.418;2023-02-28T02:34:16;6.95;;;3.40;;
65936;SDS011;52707;52.086;5.418;2023-02-28T02:39:30;6.85;;;3.72;;
65936;SDS011;52707;52.086;5.418;2023-02-28T02:41:59;5.10;;;3.30;;
65936;SDS011;52707;52.086;5.418;2023-02-28T02:44:27;7.88;;;3.75;;
65936;SDS011;52707;52.086;5.418;2023-02-28T02:46:55;7.95;;;3.28;;
65936;SDS011;52707;52.086;5.418;2023-02-28T02:49:26;5.55;;;3.20;;
65936;SDS011;52707;52.086;5.418;2023-02-28T02:51:53;6.40;;;3.60;;
65936;SDS011;52707;52.086;5.418;2023-02-28T02:54:21;7.18;;;3.42;;
65936;SDS011;52707;52.086;5.418;2023-02-28T02:56:48;5.28;;;3.63;;
65936;SDS011;52707;52.086;5.418;2023-02-28T02:59:16;5.20;;;3.65;;
65936;SDS011;52707;52.086;5.418;2023-02-28T03:01:51;12.77;;;4.28;;
65936;SDS011;52707;52.086;5.418;2023-02-28T03:04:19;8.93;;;3.60;;
65936;SDS011;52707;52.086;5.418;2023-02-28T03:06:45;11.23;;;4.15;;
65936;SDS011;52707;52.086;5.418;2023-02-28T03:09:12;8.07;;;3.80;;
65936;SDS011;52707;52.086;5.418;2023-02-28T03:11:38;4.85;;;3.33;;
65936;SDS011;52707;52.086;5.418;2023-02-28T03:19:31;8.32;;;3.60;;
65936;SDS011;52707;52.086;5.418;2023-02-28T03:22:22;9.07;;;3.92;;
65936;SDS011;52707;52.086;5.418;2023-02-28T03:27:20;9.63;;;3.30;;
65936;SDS011;52707;52.086;5.418;2023-02-28T03:29:55;10.07;;;3.78;;
65936;SDS011;52707;52.086;5.418;2023-02-28T03:32:25;10.25;;;4.05;;
65936;SDS011;52707;52.086;5.418;2023-02-28T03:37:25;7.25;;;4.22;;
65936;SDS011;52707;52.086;5.418;2023-02-28T03:39:54;6.32;;;3.72;;
65936;SDS011;52707;52.086;5.418;2023-02-28T03:42:23;9.77;;;3.90;;
65936;SDS011;52707;52.086;5.418;2023-02-28T03:44:52;6.35;;;3.80;;
65936;SDS011;52707;52.086;5.418;2023-02-28T03:50:00;7.30;;;3.83;;
65936;SDS011;52707;52.086;5.418;2023-02-28T03:52:28;7.15;;;3.90;;
65936;SDS011;52707;52.086;5.418;2023-02-28T03:54:59;9.07;;;4.22;;
65936;SDS011;52707;52.086;5.418;2023-02-28T03:57:47;11.98;;;4.47;;
65936;SDS011;52707;52.086;5.418;2023-02-28T04:00:20;9.27;;;4.00;;
65936;SDS011;52707;52.086;5.418;2023-02-28T04:05:21;16.30;;;4.32;;
65936;SDS011;52707;52.086;5.418;2023-02-28T04:07:48;12.75;;;3.95;;
65936;SDS011;52707;52.086;5.418;2023-02-28T04:10:15;6.93;;;3.90;;
65936;SDS011;52707;52.086;5.418;2023-02-28T04:12:42;8.57;;;4.10;;
65936;SDS011;52707;52.086;5.418;2023-02-28T04:15:08;6.88;;;3.90;;
65936;SDS011;52707;52.086;5.418;2023-02-28T04:17:34;7.50;;;4.03;;
65936;SDS011;52707;52.086;5.418;2023-02-28T04:20:01;9.93;;;4.18;;
65936;SDS011;52707;52.086;5.418;2023-02-28T04:22:27;4.82;;;3.65;;
65936;SDS011;52707;52.086;5.418;2023-02-28T04:24:53;6.25;;;3.47;;
65936;SDS011;52707;52.086;5.418;2023-02-28T04:27:20;6.75;;;3.75;;
65936;SDS011;52707;52.086;5.418;2023-02-28T04:29:47;6.65;;;3.38;;
65936;SDS011;52707;52.086;5.418;2023-02-28T04:32:13;6.90;;;3.65;;
65936;SDS011;52707;52.086;5.418;2023-02-28T04:34:39;4.10;;;3.13;;
65936;SDS011;52707;52.086;5.418;2023-02-28T04:37:06;5.22;;;3.08;;
65936;SDS011;52707;52.086;5.418;2023-02-28T04:39:40;5.78;;;2.85;;
65936;SDS011;52707;52.086;5.418;2023-02-28T04:42:06;5.95;;;3.08;;
65936;SDS011;52707;52.086;5.418;2023-02-28T04:44:33;4.10;;;3.15;;
65936;SDS011;52707;52.086;5.418;2023-02-28T04:46:59;4.95;;;3.30;;
65936;SDS011;52707;52.086;5.418;2023-02-28T04:49:25;9.68;;;3.67;;
65936;SDS011;52707;52.086;5.418;2023-02-28T04:51:52;7.07;;;3.22;;
65936;SDS011;52707;52.086;5.418;2023-02-28T04:54:19;10.27;;;3.38;;
65936;SDS011;52707;52.086;5.418;2023-02-28T04:56:45;8.02;;;3.10;;
65936;SDS011;52707;52.086;5.418;2023-02-28T04:59:12;5.90;;;3.03;;
65936;SDS011;52707;52.086;5.418;2023-02-28T05:01:38;5.35;;;3.28;;
65936;SDS011;52707;52.086;5.418;2023-02-28T05:04:04;5.00;;;2.90;;
65936;SDS011;52707;52.086;5.418;2023-02-28T05:06:32;7.45;;;3.45;;
65936;SDS011;52707;52.086;5.418;2023-02-28T05:08:59;8.10;;;2.70;;
65936;SDS011;52707;52.086;5.418;2023-02-28T05:11:26;7.03;;;3.05;;
65936;SDS011;52707;52.086;5.418;2023-02-28T05:13:55;4.50;;;3.40;;
65936;SDS011;52707;52.086;5.418;2023-02-28T05:16:21;6.07;;;3.50;;
65936;SDS011;52707;52.086;5.418;2023-02-28T05:18:48;5.60;;;3.38;;
65936;SDS011;52707;52.086;5.418;2023-02-28T05:23:49;3.58;;;2.75;;
65936;SDS011;52707;52.086;5.418;2023-02-28T05:26:16;5.15;;;3.17;;
65936;SDS011;52707;52.086;5.418;2023-02-28T05:28:42;4.30;;;2.90;;
65936;SDS011;52707;52.086;5.418;2023-02-28T05:31:11;4.40;;;2.67;;
65936;SDS011;52707;52.086;5.418;2023-02-28T05:33:38;7.80;;;3.58;;
65936;SDS011;52707;52.086;5.418;2023-02-28T05:36:04;3.83;;;2.63;;
65936;SDS011;52707;52.086;5.418;2023-02-28T05:38:31;8.68;;;2.80;;
65936;SDS011;52707;52.086;5.418;2023-02-28T05:40:57;4.22;;;2.67;;
65936;SDS011;52707;52.086;5.418;2023-02-28T05:43:24;3.10;;;2.53;;
65936;SDS011;52707;52.086;5.418;2023-02-28T05:45:50;5.53;;;3.22;;
65936;SDS011;52707;52.086;5.418;2023-02-28T05:48:16;3.50;;;2.53;;
65936;SDS011;52707;52.086;5.418;2023-02-28T05:50:44;4.50;;;2.90;;
65936;SDS011;52707;52.086;5.418;2023-02-28T05:53:12;7.95;;;3.67;;
65936;SDS011;52707;52.086;5.418;2023-02-28T05:55:38;4.22;;;3.13;;
65936;SDS011;52707;52.086;5.418;2023-02-28T05:58:04;9.18;;;3.67;;
65936;SDS011;52707;52.086;5.418;2023-02-28T06:00:31;3.35;;;2.92;;
65936;SDS011;52707;52.086;5.418;2023-02-28T06:02:57;5.18;;;3.10;;
65936;SDS011;52707;52.086;5.418;2023-02-28T06:05:27;7.18;;;2.90;;
65936;SDS011;52707;52.086;5.418;2023-02-28T06:07:54;5.28;;;3.08;;
65936;SDS011;52707;52.086;5.418;2023-02-28T06:10:20;6.25;;;2.90;;
65936;SDS011;52707;52.086;5.418;2023-02-28T06:12:46;6.40;;;3.45;;
65936;SDS011;52707;52.086;5.418;2023-02-28T06:15:13;7.30;;;2.78;;
65936;SDS011;52707;52.086;5.418;2023-02-28T06:17:40;3.83;;;3.20;;
65936;SDS011;52707;52.086;5.418;2023-02-28T06:20:07;6.18;;;2.67;;
65936;SDS011;52707;52.086;5.418;2023-02-28T06:22:35;6.72;;;3.17;;
65936;SDS011;52707;52.086;5.418;2023-02-28T06:25:02;5.50;;;3.63;;
65936;SDS011;52707;52.086;5.418;2023-02-28T06:27:30;4.68;;;2.88;;
65936;SDS011;52707;52.086;5.418;2023-02-28T06:29:56;9.10;;;3.13;;
65936;SDS011;52707;52.086;5.418;2023-02-28T06:32:22;6.13;;;3.45;;
65936;SDS011;52707;52.086;5.418;2023-02-28T06:34:49;6.03;;;3.13;;
65936;SDS011;52707;52.086;5.418;2023-02-28T06:37:16;5.80;;;3.08;;
65936;SDS011;52707;52.086;5.418;2023-02-28T06:39:43;4.60;;;3.35;;
65936;SDS011;52707;52.086;5.418;2023-02-28T06:42:09;5.32;;;3.53;;
65936;SDS011;52707;52.086;5.418;2023-02-28T06:44:36;4.20;;;3.50;;
65936;SDS011;52707;52.086;5.418;2023-02-28T06:47:03;7.88;;;3.60;;
65936;SDS011;52707;52.086;5.418;2023-02-28T06:49:30;9.95;;;3.97;;
65936;SDS011;52707;52.086;5.418;2023-02-28T06:51:56;11.52;;;4.57;;
65936;SDS011;52707;52.086;5.418;2023-02-28T06:54:22;5.45;;;3.53;;
65936;SDS011;52707;52.086;5.418;2023-02-28T06:56:49;9.45;;;3.20;;
65936;SDS011;52707;52.086;5.418;2023-02-28T06:59:16;6.85;;;3.55;;
65936;SDS011;52707;52.086;5.418;2023-02-28T07:01:42;11.60;;;3.55;;
65936;SDS011;52707;52.086;5.418;2023-02-28T07:04:09;10.05;;;3.40;;
65936;SDS011;52707;52.086;5.418;2023-02-28T07:06:35;5.22;;;3.70;;
65936;SDS011;52707;52.086;5.418;2023-02-28T07:09:01;6.13;;;3.63;;
65936;SDS011;52707;52.086;5.418;2023-02-28T07:11:30;6.25;;;3.78;;
65936;SDS011;52707;52.086;5.418;2023-02-28T07:13:57;5.32;;;3.70;;
65936;SDS011;52707;52.086;5.418;2023-02-28T07:16:24;7.13;;;3.75;;
65936;SDS011;52707;52.086;5.418;2023-02-28T07:18:54;4.70;;;3.40;;
65936;SDS011;52707;52.086;5.418;2023-02-28T07:21:22;8.97;;;3.70;;
65936;SDS011;52707;52.086;5.418;2023-02-28T07:23:49;5.63;;;3.35;;
65936;SDS011;52707;52.086;5.418;2023-02-28T07:26:16;5.70;;;3.78;;
65936;SDS011;52707;52.086;5.418;2023-02-28T07:28:43;8.07;;;4.32;;
65936;SDS011;52707;52.086;5.418;2023-02-28T07:31:10;4.95;;;4.18;;
65936;SDS011;52707;52.086;5.418;2023-02-28T07:33:37;6.82;;;4.32;;
65936;SDS011;52707;52.086;5.418;2023-02-28T07:36:07;6.82;;;3.90;;
65936;SDS011;52707;52.086;5.418;2023-02-28T07:38:35;6.15;;;3.90;;
65936;SDS011;52707;52.086;5.418;2023-02-28T07:41:01;6.97;;;4.20;;
65936;SDS011;52707;52.086;5.418;2023-02-28T07:43:31;10.70;;;4.37;;
65936;SDS011;52707;52.086;5.418;2023-02-28T07:46:05;6.90;;;4.60;;
65936;SDS011;52707;52.086;5.418;2023-02-28T07:48:32;8.15;;;4.40;;
65936;SDS011;52707;52.086;5.418;2023-02-28T07:50:59;7.00;;;4.20;;
65936;SDS011;52707;52.086;5.418;2023-02-28T07:53:26;9.35;;;4.13;;
65936;SDS011;52707;52.086;5.418;2023-02-28T07:55:56;6.05;;;3.67;;
65936;SDS011;52707;52.086;5.418;2023-02-28T07:58:23;7.22;;;4.15;;
65936;SDS011;52707;52.086;5.418;2023-02-28T08:00:50;5.03;;;3.50;;
65936;SDS011;52707;52.086;5.418;2023-02-28T08:03:20;9.45;;;3.80;;
65936;SDS011;52707;52.086;5.418;2023-02-28T08:05:46;4.57;;;3.65;;
65936;SDS011;52707;52.086;5.418;2023-02-28T08:08:14;6.07;;;3.25;;
65936;SDS011;52707;52.086;5.418;2023-02-28T08:10:40;6.20;;;3.53;;
65936;SDS011;52707;52.086;5.418;2023-02-28T08:13:07;14.77;;;4.38;;
65936;SDS011;52707;52.086;5.418;2023-02-28T08:15:33;6.65;;;4.47;;
65936;SDS011;52707;52.086;5.418;2023-02-28T08:17:59;12.88;;;4.50;;
65936;SDS011;52707;52.086;5.418;2023-02-28T08:20:26;16.55;;;3.80;;
65936;SDS011;52707;52.086;5.418;2023-02-28T08:22:53;10.68;;;4.93;;
65936;SDS011;52707;52.086;5.418;2023-02-28T08:25:19;5.57;;;3.25;;
65936;SDS011;52707;52.086;5.418;2023-02-28T08:27:45;5.65;;;3.60;;
65936;SDS011;52707;52.086;5.418;2023-02-28T08:30:12;14.55;;;3.72;;
65936;SDS011;52707;52.086;5.418;2023-02-28T08:32:39;10.23;;;4.32;;
65936;SDS011;52707;52.086;5.418;2023-02-28T08:35:06;5.13;;;3.65;;
65936;SDS011;52707;52.086;5.418;2023-02-28T08:37:35;5.78;;;3.75;;
65936;SDS011;52707;52.086;5.418;2023-02-28T08:40:01;8.77;;;3.58;;
65936;SDS011;52707;52.086;5.418;2023-02-28T08:42:30;12.18;;;3.60;;
65936;SDS011;52707;52.086;5.418;2023-02-28T08:44:56;8.07;;;3.40;;
65936;SDS011;52707;52.086;5.418;2023-02-28T08:47:22;14.77;;;3.88;;
65936;SDS011;52707;52.086;5.418;2023-02-28T08:49:49;9.27;;;3.78;;
65936;SDS011;52707;52.086;5.418;2023-02-28T08:52:15;4.97;;;3.30;;
65936;SDS011;52707;52.086;5.418;2023-02-28T08:54:41;8.05;;;3.80;;
65936;SDS011;52707;52.086;5.418;2023-02-28T08:57:08;10.63;;;4.10;;
65936;SDS011;52707;52.086;5.418;2023-02-28T08:59:34;6.82;;;3.72;;
65936;SDS011;52707;52.086;5.418;2023-02-28T09:02:00;4.72;;;3.20;;
65936;SDS011;52707;52.086;5.418;2023-02-28T09:04:27;4.57;;;3.50;;
65936;SDS011;52707;52.086;5.418;2023-02-28T09:06:56;5.57;;;3.80;;
65936;SDS011;52707;52.086;5.418;2023-02-28T09:09:23;6.13;;;3.42;;
65936;SDS011;52707;52.086;5.418;2023-02-28T09:11:49;17.95;;;2.92;;
65936;SDS011;52707;52.086;5.418;2023-02-28T09:14:15;6.40;;;2.72;;
65936;SDS011;52707;52.086;5.418;2023-02-28T09:16:43;3.45;;;2.60;;
65936;SDS011;52707;52.086;5.418;2023-02-28T09:19:10;4.43;;;2.60;;
65936;SDS011;52707;52.086;5.418;2023-02-28T09:21:36;4.75;;;2.17;;
65936;SDS011;52707;52.086;5.418;2023-02-28T09:24:03;3.17;;;1.95;;
65936;SDS011;52707;52.086;5.418;2023-02-28T09:26:29;7.22;;;2.35;;
65936;SDS011;52707;52.086;5.418;2023-02-28T09:29:07;5.38;;;2.85;;
65936;SDS011;52707;52.086;5.418;2023-02-28T09:31:34;6.22;;;1.80;;
65936;SDS011;52707;52.086;5.418;2023-02-28T09:34:00;1.42;;;1.33;;
65936;SDS011;52707;52.086;5.418;2023-02-28T09:36:27;3.50;;;1.50;;
65936;SDS011;52707;52.086;5.418;2023-02-28T09:39:09;2.53;;;1.60;;
65936;SDS011;52707;52.086;5.418;2023-02-28T09:41:42;2.65;;;1.92;;
65936;SDS011;52707;52.086;5.418;2023-02-28T09:44:27;6.97;;;1.73;;
65936;SDS011;52707;52.086;5.418;2023-02-28T09:47:05;2.10;;;1.70;;
65936;SDS011;52707;52.086;5.418;2023-02-28T09:49:37;1.42;;;1.25;;
65936;SDS011;52707;52.086;5.418;2023-02-28T09:52:06;1.37;;;1.23;;
65936;SDS011;52707;52.086;5.418;2023-02-28T09:54:35;1.55;;;1.40;;
65936;SDS011;52707;52.086;5.418;2023-02-28T09:59:43;1.70;;;1.60;;
65936;SDS011;52707;52.086;5.418;2023-02-28T10:04:58;2.95;;;1.63;;
65936;SDS011;52707;52.086;5.418;2023-02-28T10:10:01;3.13;;;1.60;;
65936;SDS011;52707;52.086;5.418;2023-02-28T10:12:30;1.60;;;1.50;;
65936;SDS011;52707;52.086;5.418;2023-02-28T10:14:58;2.65;;;1.65;;
65936;SDS011;52707;52.086;5.418;2023-02-28T10:17:26;2.70;;;1.45;;
65936;SDS011;52707;52.086;5.418;2023-02-28T10:19:58;3.30;;;1.95;;
65936;SDS011;52707;52.086;5.418;2023-02-28T10:22:27;9.57;;;1.90;;
65936;SDS011;52707;52.086;5.418;2023-02-28T10:24:55;2.47;;;1.85;;
65936;SDS011;52707;52.086;5.418;2023-02-28T10:27:32;3.13;;;1.35;;
65936;SDS011;52707;52.086;5.418;2023-02-28T10:30:00;3.42;;;1.52;;
65936;SDS011;52707;52.086;5.418;2023-02-28T10:32:27;2.05;;;1.60;;
65936;SDS011;52707;52.086;5.418;2023-02-28T10:37:26;1.77;;;1.60;;
65936;SDS011;52707;52.086;5.418;2023-02-28T10:39:53;2.22;;;1.50;;
65936;SDS011;52707;52.086;5.418;2023-02-28T10:44:45;1.63;;;1.52;;
65936;SDS011;52707;52.086;5.418;2023-02-28T10:47:14;2.78;;;2.10;;
65936;SDS011;52707;52.086;5.418;2023-02-28T10:49:46;1.40;;;1.30;;
65936;SDS011;52707;52.086;5.418;2023-02-28T10:52:13;2.25;;;1.48;;
65936;SDS011;52707;52.086;5.418;2023-02-28T10:54:40;2.17;;;1.20;;
65936;SDS011;52707;52.086;5.418;2023-02-28T10:57:20;1.05;;;1.00;;
65936;SDS011;52707;52.086;5.418;2023-02-28T10:59:51;1.83;;;1.20;;
65936;SDS011;52707;52.086;5.418;2023-02-28T11:02:28;6.13;;;1.42;;
65936;SDS011;52707;52.086;5.418;2023-02-28T11:04:55;2.33;;;1.10;;
65936;SDS011;52707;52.086;5.418;2023-02-28T11:07:22;1.33;;;1.23;;
65936;SDS011;52707;52.086;5.418;2023-02-28T11:12:36;2.83;;;1.20;;
65936;SDS011;52707;52.086;5.418;2023-02-28T11:15:24;1.70;;;1.02;;
65936;SDS011;52707;52.086;5.418;2023-02-28T11:20:24;1.10;;;1.00;;
65936;SDS011;52707;52.086;5.418;2023-02-28T11:22:51;1.20;;;1.05;;
65936;SDS011;52707;52.086;5.418;2023-02-28T11:27:54;2.45;;;1.13;;
65936;SDS011;52707;52.086;5.418;2023-02-28T11:32:54;3.92;;;1.27;;
65936;SDS011;52707;52.086;5.418;2023-02-28T11:35:23;1.33;;;1.05;;
65936;SDS011;52707;52.086;5.418;2023-02-28T11:37:50;1.02;;;0.90;;
65936;SDS011;52707;52.086;5.418;2023-02-28T11:40:23;1.75;;;1.25;;
65936;SDS011;52707;52.086;5.418;2023-02-28T11:45:42;1.17;;;1.03;;
65936;SDS011;52707;52.086;5.418;2023-02-28T11:48:15;8.07;;;1.23;;
65936;SDS011;52707;52.086;5.418;2023-02-28T11:53:14;1.33;;;1.00;;
65936;SDS011;52707;52.086;5.418;2023-02-28T11:55:45;1.00;;;0.85;;
65936;SDS011;52707;52.086;5.418;2023-02-28T12:00:46;1.95;;;1.10;;
65936;SDS011;52707;52.086;5.418;2023-02-28T12:06:03;0.80;;;0.70;;
65936;SDS011;52707;52.086;5.418;2023-02-28T12:11:47;0.75;;;0.75;;
65936;SDS011;52707;52.086;5.418;2023-02-28T12:16:38;1.60;;;1.13;;
65936;SDS011;52707;52.086;5.418;2023-02-28T12:21:37;2.63;;;1.02;;
65936;SDS011;52707;52.086;5.418;2023-02-28T12:26:44;1.20;;;1.10;;
65936;SDS011;52707;52.086;5.418;2023-02-28T12:31:38;1.88;;;1.15;;
65936;SDS011;52707;52.086;5.418;2023-02-28T12:34:39;5.53;;;1.25;;
65936;SDS011;52707;52.086;5.418;2023-02-28T12:36:58;1.10;;;0.82;;
65936;SDS011;52707;52.086;5.418;2023-02-28T12:39:26;1.23;;;0.93;;
65936;SDS011;52707;52.086;5.418;2023-02-28T12:42:01;1.27;;;1.17;;
65936;SDS011;52707;52.086;5.418;2023-02-28T12:44:40;1.42;;;1.23;;
65936;SDS011;52707;52.086;5.418;2023-02-28T12:47:12;1.55;;;1.20;;
65936;SDS011;52707;52.086;5.418;2023-02-28T12:52:06;1.40;;;1.30;;
65936;SDS011;52707;52.086;5.418;2023-02-28T12:54:44;3.08;;;1.38;;
65936;SDS011;52707;52.086;5.418;2023-02-28T12:57:22;2.65;;;1.48;;
65936;SDS011;52707;52.086;5.418;2023-02-28T12:59:53;2.38;;;1.23;;
65936;SDS011;52707;52.086;5.418;2023-02-28T13:10:09;2.13;;;1.40;;
65936;SDS011;52707;52.086;5.418;2023-02-28T13:12:36;4.65;;;1.30;;
65936;SDS011;52707;52.086;5.418;2023-02-28T13:17:39;2.22;;;1.35;;
65936;SDS011;52707;52.086;5.418;2023-02-28T13:20:14;1.05;;;0.95;;
65936;SDS011;52707;52.086;5.418;2023-02-28T13:22:42;4.18;;;1.45;;
65936;SDS011;52707;52.086;5.418;2023-02-28T13:27:52;1.67;;;1.58;;
65936;SDS011;52707;52.086;5.418;2023-02-28T13:33:19;1.95;;;1.38;;
65936;SDS011;52707;52.086;5.418;2023-02-28T13:35:47;1.73;;;1.48;;
65936;SDS011;52707;52.086;5.418;2023-02-28T13:38:16;1.95;;;1.08;;
65936;SDS011;52707;52.086;5.418;2023-02-28T13:40:42;1.88;;;1.65;;
65936;SDS011;52707;52.086;5.418;2023-02-28T13:43:09;1.95;;;1.50;;
65936;SDS011;52707;52.086;5.418;2023-02-28T13:45:35;5.45;;;1.70;;
65936;SDS011;52707;52.086;5.418;2023-02-28T13:48:18;2.22;;;1.50;;
65936;SDS011;52707;52.086;5.418;2023-02-28T13:50:45;1.97;;;1.47;;
65936;SDS011;52707;52.086;5.418;2023-02-28T13:55:43;1.50;;;1.40;;
65936;SDS011;52707;52.086;5.418;2023-02-28T14:03:40;1.90;;;1.48;;
65936;SDS011;52707;52.086;5.418;2023-02-28T14:06:29;3.35;;;1.70;;
65936;SDS011;52707;52.086;5.418;2023-02-28T14:09:03;2.45;;;2.10;;
65936;SDS011;52707;52.086;5.418;2023-02-28T14:11:34;2.25;;;1.83;;
65936;SDS011;52707;52.086;5.418;2023-02-28T14:14:01;1.58;;;1.48;;
65936;SDS011;52707;52.086;5.418;2023-02-28T14:16:44;2.45;;;1.30;;
65936;SDS011;52707;52.086;5.418;2023-02-28T14:19:22;2.75;;;1.65;;
65936;SDS011;52707;52.086;5.418;2023-02-28T14:24:35;1.92;;;1.30;;
65936;SDS011;52707;52.086;5.418;2023-02-28T14:34:48;2.03;;;1.77;;
65936;SDS011;52707;52.086;5.418;2023-02-28T14:37:26;1.88;;;1.70;;
65936;SDS011;52707;52.086;5.418;2023-02-28T14:39:53;1.75;;;1.52;;
65936;SDS011;52707;52.086;5.418;2023-02-28T14:42:32;2.58;;;1.73;;
65936;SDS011;52707;52.086;5.418;2023-02-28T14:44:59;3.80;;;1.87;;
65936;SDS011;52707;52.086;5.418;2023-02-28T14:47:27;2.88;;;1.70;;
65936;SDS011;52707;52.086;5.418;2023-02-28T14:49:54;2.10;;;1.35;;
65936;SDS011;52707;52.086;5.418;2023-02-28T14:52:22;2.08;;;1.52;;
65936;SDS011;52707;52.086;5.418;2023-02-28T14:54:56;4.13;;;1.30;;
65936;SDS011;52707;52.086;5.418;2023-02-28T14:57:25;1.60;;;1.50;;
65936;SDS011;52707;52.086;5.418;2023-02-28T15:02:25;2.17;;;1.77;;
65936;SDS011;52707;52.086;5.418;2023-02-28T15:04:58;1.80;;;1.45;;
65936;SDS011;52707;52.086;5.418;2023-02-28T15:07:25;1.75;;;1.65;;
65936;SDS011;52707;52.086;5.418;2023-02-28T15:12:40;2.80;;;1.83;;
65936;SDS011;52707;52.086;5.418;2023-02-28T15:15:14;5.43;;;1.88;;
65936;SDS011;52707;52.086;5.418;2023-02-28T15:17:40;2.63;;;1.63;;
65936;SDS011;52707;52.086;5.418;2023-02-28T15:20:10;3.47;;;1.50;;
65936;SDS011;52707;52.086;5.418;2023-02-28T15:22:38;3.20;;;1.70;;
65936;SDS011;52707;52.086;5.418;2023-02-28T15:25:04;2.22;;;1.55;;
65936;SDS011;52707;52.086;5.418;2023-02-28T15:27:32;2.45;;;1.40;;
65936;SDS011;52707;52.086;5.418;2023-02-28T15:30:00;2.30;;;1.58;;
65936;SDS011;52707;52.086;5.418;2023-02-28T15:32:34;4.68;;;1.45;;
65936;SDS011;52707;52.086;5.418;2023-02-28T15:35:17;2.35;;;1.70;;
65936;SDS011;52707;52.086;5.418;2023-02-28T15:37:48;1.75;;;1.30;;
65936;SDS011;52707;52.086;5.418;2023-02-28T15:43:02;2.63;;;1.65;;
65936;SDS011;52707;52.086;5.418;2023-02-28T15:45:41;3.00;;;1.60;;
65936;SDS011;52707;52.086;5.418;2023-02-28T15:48:51;2.08;;;1.45;;
65936;SDS011;52707;52.086;5.418;2023-02-28T15:51:01;1.92;;;1.63;;
65936;SDS011;52707;52.086;5.418;2023-02-28T15:53:30;1.77;;;1.67;;
65936;SDS011;52707;52.086;5.418;2023-02-28T15:55:59;3.08;;;1.88;;
65936;SDS011;52707;52.086;5.418;2023-02-28T15:58:25;8.52;;;1.63;;
65936;SDS011;52707;52.086;5.418;2023-02-28T16:01:06;3.03;;;1.50;;
65936;SDS011;52707;52.086;5.418;2023-02-28T16:06:42;2.67;;;1.77;;
65936;SDS011;52707;52.086;5.418;2023-02-28T16:08:48;1.83;;;1.50;;
65936;SDS011;52707;52.086;5.418;2023-02-28T16:11:17;3.08;;;1.60;;
65936;SDS011;52707;52.086;5.418;2023-02-28T16:13:44;1.70;;;1.60;;
65936;SDS011;52707;52.086;5.418;2023-02-28T16:16:15;3.10;;;1.40;;
65936;SDS011;52707;52.086;5.418;2023-02-28T16:18:41;1.52;;;1.42;;
65936;SDS011;52707;52.086;5.418;2023-02-28T16:21:08;3.17;;;1.70;;
65936;SDS011;52707;52.086;5.418;2023-02-28T16:23:34;2.33;;;1.80;;
65936;SDS011;52707;52.086;5.418;2023-02-28T16:26:02;3.75;;;1.80;;
65936;SDS011;52707;52.086;5.418;2023-02-28T16:28:30;10.60;;;1.75;;
65936;SDS011;52707;52.086;5.418;2023-02-28T16:31:01;1.70;;;1.50;;
65936;SDS011;52707;52.086;5.418;2023-02-28T16:33:29;2.22;;;1.30;;
65936;SDS011;52707;52.086;5.418;2023-02-28T16:35:55;2.42;;;1.50;;
65936;SDS011;52707;52.086;5.418;2023-02-28T16:38:22;2.00;;;1.80;;
65936;SDS011;52707;52.086;5.418;2023-02-28T16:40:51;1.80;;;1.52;;
65936;SDS011;52707;52.086;5.418;2023-02-28T16:43:18;3.45;;;1.63;;
65936;SDS011;52707;52.086;5.418;2023-02-28T16:45:47;2.25;;;2.03;;
65936;SDS011;52707;52.086;5.418;2023-02-28T16:48:14;2.55;;;2.00;;
65936;SDS011;52707;52.086;5.418;2023-02-28T16:50:41;7.30;;;2.00;;
65936;SDS011;52707;52.086;5.418;2023-02-28T16:53:08;2.15;;;1.98;;
65936;SDS011;52707;52.086;5.418;2023-02-28T16:55:34;1.80;;;1.70;;
65936;SDS011;52707;52.086;5.418;2023-02-28T16:58:01;4.18;;;2.05;;
65936;SDS011;52707;52.086;5.418;2023-02-28T17:00:28;7.50;;;2.22;;
65936;SDS011;52707;52.086;5.418;2023-02-28T17:02:55;2.13;;;1.90;;